sensor_id;sensor_type;location;lat;lon;timestamp;temperature;humidity
5210;DHT22;2624;48.048;11.706;2023-02-12T00:01:31;1.60;99.90
5210;DHT22;2624;48.048;11.706;2023-02-12T00:06:33;1.50;99.90
5210;DHT22;2624;48.048;11.706;2023-02-12T00:11:36;1.50;99.90
5210;DHT22;2624;48.048;11.706;2023-02-12T00:16:38;1.50;99.90
5210;DHT22;2624;48.048;11.706;2023-02-12T00:21:39;1.50;99.90
5210;DHT22;2624;48.048;11.706;2023-02-12T00:26:42;1.60;99.90
5210;DHT22;2624;48.048;11.706;2023-02-12T00:31:44;1.60;99.90
5210;DHT22;2624;48.048;11.706;2023-02-12T00:36:46;1.60;99.90
5210;DHT22;2624;48.048;11.706;2023-02-12T00:41:49;1.60;99.90
5210;DHT22;2624;48.048;11.706;2023-02-12T00:46:51;1.60;99.90
5210;DHT22;2624;48.048;11.706;2023-02-12T00:51:53;1.60;99.90
5210;DHT22;2624;48.048;11.706;2023-02-12T00:56:56;1.60;99.90
5210;DHT22;2624;48.048;11.706;2023-02-12T01:01:58;1.60;99.90
5210;DHT22;2624;48.048;11.706;2023-02-12T01:07:00;1.60;99.90
5210;DHT22;2624;48.048;11.706;2023-02-12T01:12:03;1.50;99.90
5210;DHT22;2624;48.048;11.706;2023-02-12T01:17:07;1.50;99.90
5210;DHT22;2624;48.048;11.706;2023-02-12T01:22:09;1.50;99.90
5210;DHT22;2624;48.048;11.706;2023-02-12T01:27:12;1.50;99.90
5210;DHT22;2624;48.048;11.706;2023-02-12T01:32:13;1.50;99.90
5210;DHT22;2624;48.048;11.706;2023-02-12T01:37:15;1.50;99.90
5210;DHT22;2624;48.048;11.706;2023-02-12T01:42:18;1.50;99.90
5210;DHT22;2624;48.048;11.706;2023-02-12T01:47:21;1.50;99.90
5210;DHT22;2624;48.048;11.706;2023-02-12T01:52:25;1.50;99.90
5210;DHT22;2624;48.048;11.706;2023-02-12T01:57:31;1.60;99.90
5210;DHT22;2624;48.048;11.706;2023-02-12T02:02:33;1.50;99.90
5210;DHT22;2624;48.048;11.706;2023-02-12T02:07:36;1.50;99.90
5210;DHT22;2624;48.048;11.706;2023-02-12T02:12:39;1.50;99.90
5210;DHT22;2624;48.048;11.706;2023-02-12T02:18:00;1.50;99.90
5210;DHT22;2624;48.048;11.706;2023-02-12T02:28:54;1.50;99.90
5210;DHT22;2624;48.048;11.706;2023-02-12T02:34:03;1.50;99.90
5210;DHT22;2624;48.048;11.706;2023-02-12T02:39:14;1.50;99.90
5210;DHT22;2624;48.048;11.706;2023-02-12T02:44:22;1.50;99.90
5210;DHT22;2624;48.048;11.706;2023-02-12T02:49:28;1.50;99.90
5210;DHT22;2624;48.048;11.706;2023-02-12T02:54:36;1.50;99.90
5210;DHT22;2624;48.048;11.706;2023-02-12T02:59:42;1.50;99.90
5210;DHT22;2624;48.048;11.706;2023-02-12T03:04:49;1.50;99.90
5210;DHT22;2624;48.048;11.706;2023-02-12T03:09:56;1.60;99.90
5210;DHT22;2624;48.048;11.706;2023-02-12T03:15:02;1.60;99.90
5210;DHT22;2624;48.048;11.706;2023-02-12T03:20:11;1.60;99.90
5210;DHT22;2624;48.048;11.706;2023-02-12T03:25:17;1.60;99.90
5210;DHT22;2624;48.048;11.706;2023-02-12T03:30:19;1.60;99.90
5210;DHT22;2624;48.048;11.706;2023-02-12T03:35:29;1.50;99.90
5210;DHT22;2624;48.048;11.706;2023-02-12T03:40:36;1.50;99.90
5210;DHT22;2624;48.048;11.706;2023-02-12T03:45:43;1.50;99.90
5210;DHT22;2624;48.048;11.706;2023-02-12T03:50:51;1.50;99.90
5210;DHT22;2624;48.048;11.706;2023-02-12T03:55:57;1.50;99.90
5210;DHT22;2624;48.048;11.706;2023-02-12T04:01:02;1.60;99.90
5210;DHT22;2624;48.048;11.706;2023-02-12T04:06:20;1.50;99.90
5210;DHT22;2624;48.048;11.706;2023-02-12T04:11:28;1.50;99.90
5210;DHT22;2624;48.048;11.706;2023-02-12T04:16:36;1.50;99.90
5210;DHT22;2624;48.048;11.706;2023-02-12T04:21:50;1.50;99.90
5210;DHT22;2624;48.048;11.706;2023-02-12T04:26:58;1.50;99.90
5210;DHT22;2624;48.048;11.706;2023-02-12T04:32:04;1.60;99.90
5210;DHT22;2624;48.048;11.706;2023-02-12T04:37:15;1.60;99.90
5210;DHT22;2624;48.048;11.706;2023-02-12T04:42:17;1.50;99.90
5210;DHT22;2624;48.048;11.706;2023-02-12T04:47:19;1.50;99.90
5210;DHT22;2624;48.048;11.706;2023-02-12T04:52:22;1.60;99.90
5210;DHT22;2624;48.048;11.706;2023-02-12T04:57:24;1.50;99.90
5210;DHT22;2624;48.048;11.706;2023-02-12T05:02:26;1.50;99.90
5210;DHT22;2624;48.048;11.706;2023-02-12T05:07:29;1.40;99.90
5210;DHT22;2624;48.048;11.706;2023-02-12T05:12:30;1.50;99.90
5210;DHT22;2624;48.048;11.706;2023-02-12T05:17:32;1.50;99.90
5210;DHT22;2624;48.048;11.706;2023-02-12T05:22:35;1.50;99.90
5210;DHT22;2624;48.048;11.706;2023-02-12T05:27:37;1.50;99.90
5210;DHT22;2624;48.048;11.706;2023-02-12T05:32:39;1.50;99.90
5210;DHT22;2624;48.048;11.706;2023-02-12T05:37:42;1.50;99.90
5210;DHT22;2624;48.048;11.706;2023-02-12T05:42:43;1.40;99.90
5210;DHT22;2624;48.048;11.706;2023-02-12T05:47:45;1.40;99.90
5210;DHT22;2624;48.048;11.706;2023-02-12T05:52:48;1.40;99.90
5210;DHT22;2624;48.048;11.706;2023-02-12T05:57:50;1.30;99.90
5210;DHT22;2624;48.048;11.706;2023-02-12T06:02:53;1.40;99.90
5210;DHT22;2624;48.048;11.706;2023-02-12T06:07:56;1.40;99.90
5210;DHT22;2624;48.048;11.706;2023-02-12T06:12:58;1.40;99.90
5210;DHT22;2624;48.048;11.706;2023-02-12T06:18:00;1.40;99.90
5210;DHT22;2624;48.048;11.706;2023-02-12T06:23:03;1.40;99.90
5210;DHT22;2624;48.048;11.706;2023-02-12T06:28:04;1.40;99.90
5210;DHT22;2624;48.048;11.706;2023-02-12T06:33:06;1.40;99.90
5210;DHT22;2624;48.048;11.706;2023-02-12T06:38:09;1.40;99.90
5210;DHT22;2624;48.048;11.706;2023-02-12T06:43:11;1.40;99.90
5210;DHT22;2624;48.048;11.706;2023-02-12T06:48:13;1.40;99.90
5210;DHT22;2624;48.048;11.706;2023-02-12T06:53:16;1.40;99.90
5210;DHT22;2624;48.048;11.706;2023-02-12T06:58:18;1.30;99.90
5210;DHT22;2624;48.048;11.706;2023-02-12T07:03:19;1.40;99.90
5210;DHT22;2624;48.048;11.706;2023-02-12T07:08:23;1.40;99.90
5210;DHT22;2624;48.048;11.706;2023-02-12T07:13:24;1.40;99.90
5210;DHT22;2624;48.048;11.706;2023-02-12T07:18:26;1.40;99.90
5210;DHT22;2624;48.048;11.706;2023-02-12T07:23:29;1.50;99.90
5210;DHT22;2624;48.048;11.706;2023-02-12T07:28:32;1.40;99.90
5210;DHT22;2624;48.048;11.706;2023-02-12T07:33:34;1.40;99.90
5210;DHT22;2624;48.048;11.706;2023-02-12T07:38:38;1.50;99.90
5210;DHT22;2624;48.048;11.706;2023-02-12T07:43:41;1.50;99.90
5210;DHT22;2624;48.048;11.706;2023-02-12T07:48:44;1.50;99.90
5210;DHT22;2624;48.048;11.706;2023-02-12T07:53:47;1.60;99.90
5210;DHT22;2624;48.048;11.706;2023-02-12T07:58:50;1.60;99.90
5210;DHT22;2624;48.048;11.706;2023-02-12T08:03:53;1.70;99.90
5210;DHT22;2624;48.048;11.706;2023-02-12T08:08:58;1.70;99.90
5210;DHT22;2624;48.048;11.706;2023-02-12T08:14:00;1.90;99.90
5210;DHT22;2624;48.048;11.706;2023-02-12T08:19:02;1.80;99.90
5210;DHT22;2624;48.048;11.706;2023-02-12T08:24:06;1.70;99.90
5210;DHT22;2624;48.048;11.706;2023-02-12T08:29:10;1.80;99.90
5210;DHT22;2624;48.048;11.706;2023-02-12T08:34:16;1.90;99.90
5210;DHT22;2624;48.048;11.706;2023-02-12T08:39:20;1.80;99.90
5210;DHT22;2624;48.048;11.706;2023-02-12T08:44:22;1.70;99.90
5210;DHT22;2624;48.048;11.706;2023-02-12T08:49:26;1.80;99.90
5210;DHT22;2624;48.048;11.706;2023-02-12T08:54:30;1.80;99.90
5210;DHT22;2624;48.048;11.706;2023-02-12T08:59:32;1.80;99.90
5210;DHT22;2624;48.048;11.706;2023-02-12T09:04:34;1.90;99.90
5210;DHT22;2624;48.048;11.706;2023-02-12T09:09:37;2.20;99.90
5210;DHT22;2624;48.048;11.706;2023-02-12T09:14:39;2.50;99.90
5210;DHT22;2624;48.048;11.706;2023-02-12T09:19:41;2.60;99.90
5210;DHT22;2624;48.048;11.706;2023-02-12T09:24:44;2.60;99.90
5210;DHT22;2624;48.048;11.706;2023-02-12T09:29:46;2.90;99.90
5210;DHT22;2624;48.048;11.706;2023-02-12T09:34:48;2.60;99.90
5210;DHT22;2624;48.048;11.706;2023-02-12T09:39:51;2.40;99.90
5210;DHT22;2624;48.048;11.706;2023-02-12T09:44:57;2.90;99.90
5210;DHT22;2624;48.048;11.706;2023-02-12T09:50:16;2.70;99.90
5210;DHT22;2624;48.048;11.706;2023-02-12T09:55:28;3.10;99.90
5210;DHT22;2624;48.048;11.706;2023-02-12T10:00:31;3.10;99.90
5210;DHT22;2624;48.048;11.706;2023-02-12T10:05:37;3.00;99.90
5210;DHT22;2624;48.048;11.706;2023-02-12T10:10:48;3.60;99.90
5210;DHT22;2624;48.048;11.706;2023-02-12T10:15:54;3.30;99.90
5210;DHT22;2624;48.048;11.706;2023-02-12T10:21:06;3.90;99.90
5210;DHT22;2624;48.048;11.706;2023-02-12T10:26:18;4.00;99.90
5210;DHT22;2624;48.048;11.706;2023-02-12T10:31:26;4.50;99.90
5210;DHT22;2624;48.048;11.706;2023-02-12T10:36:37;4.40;99.90
5210;DHT22;2624;48.048;11.706;2023-02-12T10:41:43;4.10;99.90
5210;DHT22;2624;48.048;11.706;2023-02-12T10:46:46;3.90;99.90
5210;DHT22;2624;48.048;11.706;2023-02-12T10:51:57;4.80;99.90
5210;DHT22;2624;48.048;11.706;2023-02-12T10:57:09;4.50;99.90
5210;DHT22;2624;48.048;11.706;2023-02-12T11:02:20;4.50;99.90
5210;DHT22;2624;48.048;11.706;2023-02-12T11:07:23;4.80;99.90
5210;DHT22;2624;48.048;11.706;2023-02-12T11:12:33;5.00;99.90
5210;DHT22;2624;48.048;11.706;2023-02-12T11:17:38;5.10;99.90
5210;DHT22;2624;48.048;11.706;2023-02-12T11:22:48;5.30;99.90
5210;DHT22;2624;48.048;11.706;2023-02-12T11:28:05;5.80;99.90
5210;DHT22;2624;48.048;11.706;2023-02-12T11:33:21;5.80;99.90
5210;DHT22;2624;48.048;11.706;2023-02-12T11:38:31;5.80;99.90
5210;DHT22;2624;48.048;11.706;2023-02-12T11:43:35;5.70;99.90
5210;DHT22;2624;48.048;11.706;2023-02-12T11:48:39;6.00;99.90
5210;DHT22;2624;48.048;11.706;2023-02-12T11:53:48;5.90;99.90
5210;DHT22;2624;48.048;11.706;2023-02-12T11:58:52;5.50;99.90
5210;DHT22;2624;48.048;11.706;2023-02-12T12:03:59;6.20;99.90
5210;DHT22;2624;48.048;11.706;2023-02-12T12:09:09;6.20;99.90
5210;DHT22;2624;48.048;11.706;2023-02-12T12:14:18;6.30;99.90
5210;DHT22;2624;48.048;11.706;2023-02-12T12:19:27;7.20;99.90
5210;DHT22;2624;48.048;11.706;2023-02-12T12:24:52;7.20;99.90
5210;DHT22;2624;48.048;11.706;2023-02-12T12:30:00;6.90;99.90
5210;DHT22;2624;48.048;11.706;2023-02-12T12:35:10;7.10;99.90
5210;DHT22;2624;48.048;11.706;2023-02-12T12:40:34;7.30;99.90
5210;DHT22;2624;48.048;11.706;2023-02-12T12:51:35;7.80;99.90
5210;DHT22;2624;48.048;11.706;2023-02-12T12:56:48;7.50;99.90
5210;DHT22;2624;48.048;11.706;2023-02-12T13:02:36;8.10;99.90
5210;DHT22;2624;48.048;11.706;2023-02-12T13:07:52;8.30;99.90
5210;DHT22;2624;48.048;11.706;2023-02-12T13:13:08;8.00;99.90
5210;DHT22;2624;48.048;11.706;2023-02-12T13:18:23;8.60;99.90
5210;DHT22;2624;48.048;11.706;2023-02-12T13:23:37;8.00;99.90
5210;DHT22;2624;48.048;11.706;2023-02-12T13:28:42;8.20;99.90
5210;DHT22;2624;48.048;11.706;2023-02-12T13:33:50;8.50;99.90
5210;DHT22;2624;48.048;11.706;2023-02-12T13:38:58;8.30;99.90
5210;DHT22;2624;48.048;11.706;2023-02-12T13:44:06;9.10;99.90
5210;DHT22;2624;48.048;11.706;2023-02-12T13:49:20;9.00;99.90
5210;DHT22;2624;48.048;11.706;2023-02-12T13:54:36;8.50;99.90
5210;DHT22;2624;48.048;11.706;2023-02-12T13:59:48;8.70;99.90
5210;DHT22;2624;48.048;11.706;2023-02-12T14:04:55;8.30;99.90
5210;DHT22;2624;48.048;11.706;2023-02-12T14:10:01;8.10;99.90
5210;DHT22;2624;48.048;11.706;2023-02-12T14:15:05;8.10;99.90
5210;DHT22;2624;48.048;11.706;2023-02-12T14:20:20;8.30;99.90
5210;DHT22;2624;48.048;11.706;2023-02-12T14:25:39;8.10;99.90
5210;DHT22;2624;48.048;11.706;2023-02-12T14:30:42;8.00;99.90
5210;DHT22;2624;48.048;11.706;2023-02-12T14:35:46;8.00;99.90
5210;DHT22;2624;48.048;11.706;2023-02-12T14:40:49;8.00;99.90
5210;DHT22;2624;48.048;11.706;2023-02-12T14:45:52;8.10;99.90
5210;DHT22;2624;48.048;11.706;2023-02-12T14:50:56;7.90;99.90
5210;DHT22;2624;48.048;11.706;2023-02-12T14:56:00;8.00;99.90
5210;DHT22;2624;48.048;11.706;2023-02-12T15:01:04;7.80;99.90
5210;DHT22;2624;48.048;11.706;2023-02-12T15:06:13;7.80;99.90
5210;DHT22;2624;48.048;11.706;2023-02-12T15:11:26;7.90;99.90
5210;DHT22;2624;48.048;11.706;2023-02-12T15:16:33;8.00;99.90
5210;DHT22;2624;48.048;11.706;2023-02-12T15:21:37;7.50;99.90
5210;DHT22;2624;48.048;11.706;2023-02-12T15:26:41;7.30;99.90
5210;DHT22;2624;48.048;11.706;2023-02-12T15:31:50;7.30;99.90
5210;DHT22;2624;48.048;11.706;2023-02-12T15:36:56;7.30;99.90
5210;DHT22;2624;48.048;11.706;2023-02-12T15:41:58;7.10;99.90
5210;DHT22;2624;48.048;11.706;2023-02-12T15:47:08;7.10;99.90
5210;DHT22;2624;48.048;11.706;2023-02-12T15:52:18;6.90;99.90
5210;DHT22;2624;48.048;11.706;2023-02-12T15:57:22;7.00;99.90
5210;DHT22;2624;48.048;11.706;2023-02-12T16:02:26;7.00;99.90
5210;DHT22;2624;48.048;11.706;2023-02-12T16:07:33;6.90;99.90
5210;DHT22;2624;48.048;11.706;2023-02-12T16:12:36;6.90;99.90
5210;DHT22;2624;48.048;11.706;2023-02-12T16:17:45;6.90;99.90
5210;DHT22;2624;48.048;11.706;2023-02-12T16:22:50;6.70;99.90
5210;DHT22;2624;48.048;11.706;2023-02-12T16:27:56;6.70;99.90
5210;DHT22;2624;48.048;11.706;2023-02-12T16:32:59;6.60;99.90
5210;DHT22;2624;48.048;11.706;2023-02-12T16:43:28;6.50;99.90
5210;DHT22;2624;48.048;11.706;2023-02-12T16:48:30;6.30;99.90
5210;DHT22;2624;48.048;11.706;2023-02-12T16:53:39;6.40;99.90
5210;DHT22;2624;48.048;11.706;2023-02-12T16:58:48;6.40;99.90
5210;DHT22;2624;48.048;11.706;2023-02-12T17:03:50;6.20;99.90
5210;DHT22;2624;48.048;11.706;2023-02-12T17:08:54;6.00;99.90
5210;DHT22;2624;48.048;11.706;2023-02-12T17:13:56;6.10;99.90
5210;DHT22;2624;48.048;11.706;2023-02-12T17:18:58;6.10;99.90
5210;DHT22;2624;48.048;11.706;2023-02-12T17:24:01;6.10;99.90
5210;DHT22;2624;48.048;11.706;2023-02-12T17:29:03;5.80;99.90
5210;DHT22;2624;48.048;11.706;2023-02-12T17:34:05;5.90;99.90
5210;DHT22;2624;48.048;11.706;2023-02-12T17:39:10;5.90;99.90
5210;DHT22;2624;48.048;11.706;2023-02-12T17:44:13;5.90;99.90
5210;DHT22;2624;48.048;11.706;2023-02-12T17:49:15;5.90;99.90
5210;DHT22;2624;48.048;11.706;2023-02-12T17:54:18;5.50;99.90
5210;DHT22;2624;48.048;11.706;2023-02-12T17:59:20;5.40;99.90
5210;DHT22;2624;48.048;11.706;2023-02-12T18:04:22;5.30;99.90
5210;DHT22;2624;48.048;11.706;2023-02-12T18:09:25;5.30;99.90
5210;DHT22;2624;48.048;11.706;2023-02-12T18:14:26;5.50;99.90
5210;DHT22;2624;48.048;11.706;2023-02-12T18:19:28;5.40;99.90
5210;DHT22;2624;48.048;11.706;2023-02-12T18:24:31;5.40;99.90
5210;DHT22;2624;48.048;11.706;2023-02-12T18:29:34;5.40;99.90
5210;DHT22;2624;48.048;11.706;2023-02-12T18:34:36;5.20;99.90
5210;DHT22;2624;48.048;11.706;2023-02-12T18:39:39;5.00;99.90
5210;DHT22;2624;48.048;11.706;2023-02-12T18:44:41;5.00;99.90
5210;DHT22;2624;48.048;11.706;2023-02-12T18:49:43;5.00;99.90
5210;DHT22;2624;48.048;11.706;2023-02-12T18:54:46;5.00;99.90
5210;DHT22;2624;48.048;11.706;2023-02-12T18:59:48;4.90;99.90
5210;DHT22;2624;48.048;11.706;2023-02-12T19:04:49;4.80;99.90
5210;DHT22;2624;48.048;11.706;2023-02-12T19:09:53;4.60;99.90
5210;DHT22;2624;48.048;11.706;2023-02-12T19:14:54;4.50;99.90
5210;DHT22;2624;48.048;11.706;2023-02-12T19:19:56;4.40;99.90
5210;DHT22;2624;48.048;11.706;2023-02-12T19:24:59;4.10;99.90
5210;DHT22;2624;48.048;11.706;2023-02-12T19:30:03;4.40;99.90
5210;DHT22;2624;48.048;11.706;2023-02-12T19:35:05;4.50;99.90
5210;DHT22;2624;48.048;11.706;2023-02-12T19:40:09;4.60;99.90
5210;DHT22;2624;48.048;11.706;2023-02-12T19:45:11;4.50;99.90
5210;DHT22;2624;48.048;11.706;2023-02-12T19:50:13;4.50;99.90
5210;DHT22;2624;48.048;11.706;2023-02-12T19:55:16;4.40;99.90
5210;DHT22;2624;48.048;11.706;2023-02-12T20:00:18;4.40;99.90
5210;DHT22;2624;48.048;11.706;2023-02-12T20:05:20;4.30;99.90
5210;DHT22;2624;48.048;11.706;2023-02-12T20:10:23;4.30;99.90
5210;DHT22;2624;48.048;11.706;2023-02-12T20:15:25;4.30;99.90
5210;DHT22;2624;48.048;11.706;2023-02-12T20:20:27;4.20;99.90
5210;DHT22;2624;48.048;11.706;2023-02-12T20:25:30;4.10;99.90
5210;DHT22;2624;48.048;11.706;2023-02-12T20:30:32;4.00;99.90
5210;DHT22;2624;48.048;11.706;2023-02-12T20:35:34;3.90;99.90
5210;DHT22;2624;48.048;11.706;2023-02-12T20:40:37;3.60;99.90
5210;DHT22;2624;48.048;11.706;2023-02-12T20:45:39;3.80;99.90
5210;DHT22;2624;48.048;11.706;2023-02-12T20:50:41;3.60;99.90
5210;DHT22;2624;48.048;11.706;2023-02-12T20:55:44;3.40;99.90
5210;DHT22;2624;48.048;11.706;2023-02-12T21:00:46;3.50;99.90
5210;DHT22;2624;48.048;11.706;2023-02-12T21:05:47;3.50;99.90
5210;DHT22;2624;48.048;11.706;2023-02-12T21:10:57;3.50;99.90
5210;DHT22;2624;48.048;11.706;2023-02-12T21:16:07;3.60;99.90
5210;DHT22;2624;48.048;11.706;2023-02-12T21:21:10;3.60;99.90
5210;DHT22;2624;48.048;11.706;2023-02-12T21:26:15;3.40;99.90
5210;DHT22;2624;48.048;11.706;2023-02-12T21:31:19;3.30;99.90
5210;DHT22;2624;48.048;11.706;2023-02-12T21:36:24;3.30;99.90
5210;DHT22;2624;48.048;11.706;2023-02-12T21:41:28;3.40;99.90
5210;DHT22;2624;48.048;11.706;2023-02-12T21:46:30;3.40;99.90
5210;DHT22;2624;48.048;11.706;2023-02-12T21:51:34;3.50;99.90
5210;DHT22;2624;48.048;11.706;2023-02-12T21:56:40;3.40;99.90
5210;DHT22;2624;48.048;11.706;2023-02-12T22:01:44;3.40;99.90
5210;DHT22;2624;48.048;11.706;2023-02-12T22:06:47;3.20;99.90
5210;DHT22;2624;48.048;11.706;2023-02-12T22:11:50;3.10;99.90
5210;DHT22;2624;48.048;11.706;2023-02-12T22:16:52;3.10;99.90
5210;DHT22;2624;48.048;11.706;2023-02-12T22:21:54;3.10;99.90
5210;DHT22;2624;48.048;11.706;2023-02-12T22:26:57;2.70;99.90
5210;DHT22;2624;48.048;11.706;2023-02-12T22:31:59;3.00;99.90
5210;DHT22;2624;48.048;11.706;2023-02-12T22:37:00;2.90;99.90
5210;DHT22;2624;48.048;11.706;2023-02-12T22:42:03;3.00;99.90
5210;DHT22;2624;48.048;11.706;2023-02-12T22:47:05;3.10;99.90
5210;DHT22;2624;48.048;11.706;2023-02-12T22:52:07;2.70;99.90
5210;DHT22;2624;48.048;11.706;2023-02-12T22:57:10;2.80;99.90
5210;DHT22;2624;48.048;11.706;2023-02-12T23:02:11;2.80;99.90
5210;DHT22;2624;48.048;11.706;2023-02-12T23:07:13;2.80;99.90
5210;DHT22;2624;48.048;11.706;2023-02-12T23:12:16;2.40;99.90
5210;DHT22;2624;48.048;11.706;2023-02-12T23:17:18;2.10;99.90
5210;DHT22;2624;48.048;11.706;2023-02-12T23:22:20;2.20;99.90
5210;DHT22;2624;48.048;11.706;2023-02-12T23:27:23;2.10;99.90
5210;DHT22;2624;48.048;11.706;2023-02-12T23:32:24;1.90;99.90
5210;DHT22;2624;48.048;11.706;2023-02-12T23:37:26;2.00;99.90
5210;DHT22;2624;48.048;11.706;2023-02-12T23:42:29;2.00;99.90
5210;DHT22;2624;48.048;11.706;2023-02-12T23:47:31;2.20;99.90
5210;DHT22;2624;48.048;11.706;2023-02-12T23:52:33;2.20;99.90
5210;DHT22;2624;48.048;11.706;2023-02-12T23:57:36;2.20;99.90
